Time;durP1;ratioP1;P1;durP2;ratioP2;P2;SDS_P1;SDS_P2;PMS_P1;PMS_P2;Temp;Humidity;BMP_temperature;BMP_pressure;BME280_temperature;BME280_humidity;BME280_pressure;Samples;Min_cycle;Max_cycle;Signal;HPM_P1;HPM_P2
2021/04/07 00:00:20;;;;;;;3.00;1.43;;;7.90;47.40;;;;;;5042935;28;20081;-62
2021/04/07 00:02:46;;;;;;;2.03;1.50;;;7.90;47.40;;;;;;5042951;28;20040;-62
2021/04/07 00:05:14;;;;;;;2.87;1.03;;;8.00;47.30;;;;;;5054060;28;20395;-61
2021/04/07 00:07:43;;;;;;;1.60;1.20;;;8.10;47.00;;;;;;5053885;28;20040;-61
2021/04/07 00:10:12;;;;;;;3.83;0.77;;;8.10;46.60;;;;;;5044788;28;20052;-61
2021/04/07 00:12:38;;;;;;;3.53;1.00;;;8.20;45.90;;;;;;5047515;28;20040;-61
2021/04/07 00:15:27;;;;;;;2.13;1.10;;;8.20;45.80;;;;;;5051458;28;20490;-61
2021/04/07 00:17:53;;;;;;;2.40;1.17;;;8.20;46.20;;;;;;5051759;28;20045;-62
2021/04/07 00:20:24;;;;;;;2.80;1.10;;;8.10;46.70;;;;;;5051356;28;20044;-62
2021/04/07 00:22:50;;;;;;;2.43;0.90;;;8.10;47.10;;;;;;5041442;28;20096;-61
2021/04/07 00:25:20;;;;;;;4.53;1.47;;;8.20;46.70;;;;;;5037143;28;20022;-61
2021/04/07 00:27:53;;;;;;;2.57;0.80;;;8.20;46.80;;;;;;5050021;28;20025;-61
2021/04/07 00:30:20;;;;;;;1.33;0.90;;;8.10;45.80;;;;;;5055862;28;20021;-62
2021/04/07 00:32:46;;;;;;;2.53;1.20;;;8.20;46.00;;;;;;5045768;28;20040;-62
2021/04/07 00:35:12;;;;;;;3.80;1.67;;;8.30;46.30;;;;;;5050137;28;20025;-61
2021/04/07 00:37:38;;;;;;;2.57;1.20;;;8.20;46.50;;;;;;5051277;28;20032;-62
2021/04/07 00:40:06;;;;;;;1.87;1.10;;;8.20;46.70;;;;;;5047496;28;20039;-62
2021/04/07 00:42:32;;;;;;;4.17;1.53;;;8.20;47.00;;;;;;5039766;28;20554;-62
2021/04/07 00:44:58;;;;;;;2.63;1.20;;;8.30;46.70;;;;;;5040906;28;20517;-61
2021/04/07 00:47:24;;;;;;;2.53;1.60;;;8.30;46.70;;;;;;5037968;28;20044;-62
2021/04/07 00:49:50;;;;;;;2.80;1.20;;;8.20;46.70;;;;;;5046531;28;20037;-62
2021/04/07 00:52:15;;;;;;;3.53;1.73;;;8.10;46.90;;;;;;5053093;28;20060;-62
2021/04/07 00:54:41;;;;;;;1.67;1.30;;;8.10;47.30;;;;;;5041318;28;20108;-62
2021/04/07 00:57:08;;;;;;;2.53;1.43;;;7.90;47.70;;;;;;5054816;28;20035;-63
2021/04/07 00:59:34;;;;;;;5.23;1.83;;;8.10;47.70;;;;;;5048950;28;20029;-62
2021/04/07 01:02:00;;;;;;;2.30;1.60;;;8.00;47.90;;;;;;5048269;28;20101;-63
2021/04/07 01:04:26;;;;;;;3.53;1.67;;;7.90;47.90;;;;;;5049098;28;20382;-62
2021/04/07 01:06:52;;;;;;;4.03;2.07;;;7.90;48.20;;;;;;5054921;28;20033;-62
2021/04/07 01:09:18;;;;;;;2.00;1.70;;;8.00;48.10;;;;;;5045405;28;20033;-62
2021/04/07 01:11:44;;;;;;;4.43;1.80;;;7.90;48.40;;;;;;5042715;28;20500;-62
2021/04/07 01:14:11;;;;;;;3.27;1.70;;;7.90;48.20;;;;;;5066245;28;20947;-62
2021/04/07 01:16:37;;;;;;;2.23;1.53;;;7.90;48.60;;;;;;5044297;28;20056;-62
2021/04/07 01:19:06;;;;;;;3.77;1.80;;;7.90;48.50;;;;;;5048625;28;20067;-62
2021/04/07 01:21:31;;;;;;;2.83;1.83;;;7.90;48.60;;;;;;5051427;28;20471;-62
2021/04/07 01:23:57;;;;;;;2.83;1.93;;;7.70;49.50;;;;;;5054376;28;20090;-62
2021/04/07 01:26:23;;;;;;;1.77;1.50;;;7.80;49.50;;;;;;5048443;28;20029;-62
2021/04/07 01:28:48;;;;;;;3.63;1.83;;;7.70;49.80;;;;;;5046719;28;20025;-63
2021/04/07 01:31:14;;;;;;;2.57;1.80;;;7.70;49.90;;;;;;5046599;28;20075;-62
2021/04/07 01:33:41;;;;;;;6.67;2.20;;;7.70;50.00;;;;;;5045775;28;20033;-62
2021/04/07 01:36:07;;;;;;;4.33;2.30;;;7.70;50.70;;;;;;5046261;28;20028;-62
2021/04/07 01:38:33;;;;;;;3.13;2.20;;;7.70;50.60;;;;;;5049700;28;20021;-62
2021/04/07 01:41:00;;;;;;;2.83;2.50;;;7.80;50.70;;;;;;5039329;28;20443;-62
2021/04/07 01:43:27;;;;;;;4.33;2.80;;;7.80;50.50;;;;;;5051049;28;20021;-62
2021/04/07 01:45:55;;;;;;;3.33;2.43;;;7.80;50.80;;;;;;5047692;28;20052;-62
2021/04/07 01:48:21;;;;;;;3.80;2.77;;;7.80;50.60;;;;;;5052889;28;20025;-62
2021/04/07 01:50:49;;;;;;;3.03;2.67;;;7.80;50.60;;;;;;5044559;28;20474;-62
2021/04/07 01:53:18;;;;;;;5.57;2.90;;;7.90;51.00;;;;;;5052510;28;20386;-62
2021/04/07 01:55:44;;;;;;;5.07;2.80;;;7.90;50.70;;;;;;5051841;28;20021;-62
2021/04/07 01:58:10;;;;;;;6.17;3.17;;;7.90;50.50;;;;;;5045661;28;20026;-62
2021/04/07 02:00:36;;;;;;;3.80;3.20;;;7.90;50.40;;;;;;5042079;28;20044;-62
2021/04/07 02:03:03;;;;;;;4.80;3.47;;;7.90;50.90;;;;;;5041061;28;20029;-62
2021/04/07 02:05:29;;;;;;;4.57;2.80;;;7.90;50.50;;;;;;5046154;28;20104;-62
2021/04/07 02:07:55;;;;;;;3.23;2.30;;;8.00;50.20;;;;;;5050467;28;20063;-62
2021/04/07 02:10:21;;;;;;;3.90;2.70;;;7.90;50.10;;;;;;5057765;28;20029;-62
2021/04/07 02:12:54;;;;;;;4.50;2.37;;;7.90;50.30;;;;;;5038283;28;20532;-62
2021/04/07 02:15:22;;;;;;;3.23;2.50;;;7.90;50.40;;;;;;5036488;28;20061;-62
2021/04/07 02:17:47;;;;;;;5.50;2.63;;;7.90;50.20;;;;;;5066635;28;20450;-62
2021/04/07 02:20:14;;;;;;;5.97;2.47;;;7.90;49.80;;;;;;5045700;28;20029;-62
2021/04/07 02:22:39;;;;;;;3.43;2.60;;;7.80;49.80;;;;;;5043781;28;20113;-62
2021/04/07 02:25:06;;;;;;;3.17;2.27;;;8.00;49.40;;;;;;5043845;28;20104;-62
2021/04/07 02:27:34;;;;;;;3.60;2.53;;;7.90;49.20;;;;;;5044889;28;20075;-62
2021/04/07 02:30:00;;;;;;;4.20;2.10;;;7.90;48.60;;;;;;5049277;28;20029;-62
2021/04/07 02:32:26;;;;;;;3.30;1.97;;;7.90;48.90;;;;;;5064228;28;20029;-62
2021/04/07 02:34:52;;;;;;;3.07;2.20;;;8.00;48.60;;;;;;5039666;28;20143;-62
2021/04/07 02:37:19;;;;;;;5.80;2.57;;;8.00;48.50;;;;;;5043619;28;20033;-62
2021/04/07 02:39:49;;;;;;;6.00;2.80;;;8.10;47.90;;;;;;5050601;28;20020;-62
2021/04/07 02:42:17;;;;;;;3.93;2.27;;;8.00;47.80;;;;;;5045176;28;20033;-62
2021/04/07 02:44:42;;;;;;;4.60;2.70;;;8.00;48.20;;;;;;5046844;28;20036;-62
2021/04/07 02:47:08;;;;;;;3.20;2.90;;;8.10;47.90;;;;;;5042064;28;20030;-62
2021/04/07 02:49:34;;;;;;;3.73;2.60;;;8.10;47.70;;;;;;5051752;28;20031;-62
2021/04/07 02:52:00;;;;;;;4.90;3.00;;;8.10;47.90;;;;;;5044730;28;20029;-62
2021/04/07 02:54:26;;;;;;;4.97;3.10;;;8.00;47.30;;;;;;5053603;28;20032;-62
2021/04/07 02:56:51;;;;;;;4.23;2.67;;;8.00;47.10;;;;;;5053416;28;20104;-62
2021/04/07 02:59:17;;;;;;;4.17;2.83;;;8.10;47.30;;;;;;5048053;28;20025;-63
2021/04/07 03:01:43;;;;;;;3.57;3.27;;;8.00;47.60;;;;;;5042319;28;20032;-62
2021/04/07 03:04:09;;;;;;;3.60;3.30;;;7.80;47.80;;;;;;5049919;28;20021;-62
2021/04/07 03:06:35;;;;;;;4.70;3.10;;;7.80;48.10;;;;;;5043378;28;20119;-62
2021/04/07 03:09:01;;;;;;;3.60;3.30;;;7.90;48.20;;;;;;5047943;28;20108;-62
2021/04/07 03:11:27;;;;;;;5.17;4.03;;;7.70;48.10;;;;;;5050130;28;20036;-62
2021/04/07 03:13:53;;;;;;;9.93;4.20;;;7.80;48.40;;;;;;5051006;28;20029;-62
2021/04/07 03:16:19;;;;;;;6.70;3.73;;;7.80;48.10;;;;;;5051101;28;20033;-62
2021/04/07 03:18:44;;;;;;;6.90;3.80;;;7.90;48.00;;;;;;5052617;28;20067;-63
2021/04/07 03:21:10;;;;;;;8.23;3.50;;;7.90;48.10;;;;;;5043583;28;20128;-62
2021/04/07 03:23:36;;;;;;;7.50;4.23;;;7.80;47.70;;;;;;5045746;28;20024;-62
2021/04/07 03:26:02;;;;;;;4.73;3.87;;;7.80;47.50;;;;;;5046147;28;20033;-62
2021/04/07 03:28:28;;;;;;;8.83;4.67;;;7.90;47.50;;;;;;5051030;28;20016;-62
2021/04/07 03:30:53;;;;;;;4.53;3.13;;;7.80;47.40;;;;;;5040928;28;20475;-62
2021/04/07 03:33:24;;;;;;;4.47;4.07;;;7.80;47.30;;;;;;5044887;28;20057;-62
2021/04/07 03:35:52;;;;;;;4.23;3.57;;;7.70;47.80;;;;;;5048033;28;20510;-62
2021/04/07 03:38:21;;;;;;;5.40;3.40;;;7.80;47.50;;;;;;5047190;28;20382;-62
2021/04/07 03:40:47;;;;;;;5.80;3.60;;;7.80;47.30;;;;;;5043636;28;20479;-62
2021/04/07 03:43:15;;;;;;;6.10;4.03;;;7.80;47.20;;;;;;5045095;28;20034;-62
2021/04/07 03:45:49;;;;;;;4.57;3.67;;;7.70;47.60;;;;;;5047283;28;20060;-61
2021/04/07 03:48:17;;;;;;;6.73;3.87;;;7.80;47.30;;;;;;5046527;28;20474;-62
2021/04/07 03:50:44;;;;;;;6.13;4.07;;;7.80;47.10;;;;;;5052428;28;20112;-63
2021/04/07 03:53:10;;;;;;;4.83;4.13;;;7.80;47.60;;;;;;5043729;28;20033;-63
2021/04/07 03:55:37;;;;;;;5.40;3.87;;;7.80;47.30;;;;;;5045515;28;20492;-62
2021/04/07 03:58:03;;;;;;;5.50;4.20;;;7.80;47.10;;;;;;5042042;28;20025;-63
2021/04/07 04:00:30;;;;;;;5.10;4.60;;;7.70;47.10;;;;;;5052257;28;20029;-63
2021/04/07 04:02:56;;;;;;;5.57;4.43;;;7.60;47.40;;;;;;5050747;28;20502;-63
2021/04/07 04:05:21;;;;;;;5.90;5.03;;;7.60;47.20;;;;;;5050799;28;20025;-63
2021/04/07 04:07:47;;;;;;;5.13;4.20;;;7.60;47.40;;;;;;5052380;28;20025;-62
2021/04/07 04:10:14;;;;;;;6.90;4.40;;;7.60;47.90;;;;;;5050385;28;20021;-63
2021/04/07 04:12:41;;;;;;;6.43;4.20;;;7.50;47.70;;;;;;5047325;28;20033;-63
2021/04/07 04:15:10;;;;;;;7.87;5.27;;;7.50;48.20;;;;;;5045329;28;20095;-62
2021/04/07 04:17:38;;;;;;;7.47;4.67;;;7.50;48.10;;;;;;5050052;28;20029;-61
2021/04/07 04:20:05;;;;;;;6.87;4.67;;;7.60;48.10;;;;;;5046522;28;20057;-62
2021/04/07 04:22:31;;;;;;;6.93;4.60;;;7.50;48.00;;;;;;5048851;28;20540;-62
2021/04/07 04:24:57;;;;;;;5.77;4.83;;;7.60;48.10;;;;;;5041714;28;20018;-63
2021/04/07 04:27:22;;;;;;;7.77;4.63;;;7.60;47.80;;;;;;5048893;28;20578;-63
2021/04/07 04:29:48;;;;;;;7.13;4.53;;;7.60;48.20;;;;;;5048300;28;20070;-62
2021/04/07 04:32:14;;;;;;;5.47;4.87;;;7.50;48.20;;;;;;5039218;28;20029;-62
2021/04/07 04:34:39;;;;;;;9.70;4.70;;;7.50;48.30;;;;;;5045967;28;20225;-62
2021/04/07 04:37:05;;;;;;;5.93;4.77;;;7.50;47.80;;;;;;5047861;28;20060;-62
2021/04/07 04:39:31;;;;;;;8.97;4.87;;;7.50;48.10;;;;;;5045663;28;20064;-62
2021/04/07 04:41:56;;;;;;;6.07;5.10;;;7.30;48.40;;;;;;5047341;28;20033;-62
2021/04/07 04:44:22;;;;;;;6.63;4.80;;;7.30;48.70;;;;;;5045469;28;20099;-62
2021/04/07 04:46:48;;;;;;;6.30;4.40;;;7.30;48.90;;;;;;5047043;28;20049;-62
2021/04/07 04:49:14;;;;;;;8.63;5.20;;;7.30;48.80;;;;;;5052263;28;20025;-62
2021/04/07 04:51:40;;;;;;;9.87;5.07;;;7.40;48.90;;;;;;5040856;28;20479;-62
2021/04/07 04:54:05;;;;;;;6.43;4.47;;;7.40;49.10;;;;;;5050875;28;20033;-62
2021/04/07 04:56:31;;;;;;;6.23;4.57;;;7.40;48.60;;;;;;5061040;28;20044;-62
2021/04/07 04:58:57;;;;;;;6.70;4.93;;;7.50;48.50;;;;;;5048705;28;20025;-62
2021/04/07 05:01:23;;;;;;;8.17;5.20;;;7.50;48.70;;;;;;5049228;28;20045;-62
2021/04/07 05:07:42;;;;;;;7.67;5.00;;;7.40;49.10;;;;;;5038512;28;20028;-62
2021/04/07 05:10:08;;;;;;;7.60;5.23;;;7.40;48.60;;;;;;5063283;28;20029;-62
2021/04/07 05:12:34;;;;;;;8.33;5.00;;;7.50;48.20;;;;;;5053793;28;20101;-63
2021/04/07 05:14:59;;;;;;;8.33;4.83;;;7.50;47.90;;;;;;5047345;28;20021;-63
2021/04/07 05:17:27;;;;;;;6.17;5.27;;;7.50;48.10;;;;;;5061824;28;20040;-63
2021/04/07 05:19:53;;;;;;;6.90;4.80;;;7.50;48.20;;;;;;5055028;28;20063;-63
2021/04/07 05:22:19;;;;;;;8.20;5.23;;;7.50;48.10;;;;;;5040885;28;20030;-63
2021/04/07 05:24:44;;;;;;;8.60;5.30;;;7.30;48.50;;;;;;5039421;28;20157;-63
2021/04/07 05:27:10;;;;;;;7.50;5.57;;;7.40;48.60;;;;;;5050234;28;20033;-63
2021/04/07 05:29:36;;;;;;;6.63;5.93;;;7.40;48.70;;;;;;5048732;28;20143;-63
2021/04/07 05:32:02;;;;;;;10.50;6.57;;;7.30;49.30;;;;;;5045496;28;20032;-63
2021/04/07 05:34:27;;;;;;;8.30;5.80;;;7.40;49.10;;;;;;5046531;28;20029;-63
2021/04/07 05:36:54;;;;;;;9.83;5.97;;;7.30;49.60;;;;;;5043168;28;20056;-63
2021/04/07 05:39:20;;;;;;;8.87;6.03;;;7.30;49.50;;;;;;5048172;28;20081;-62
2021/04/07 05:41:46;;;;;;;8.23;6.50;;;7.40;49.60;;;;;;5042312;28;20040;-63
2021/04/07 05:44:12;;;;;;;13.73;6.93;;;7.30;49.60;;;;;;5049169;28;20040;-63
2021/04/07 05:46:41;;;;;;;8.73;7.10;;;7.30;50.10;;;;;;5047549;28;20498;-63
2021/04/07 05:49:06;;;;;;;11.43;6.53;;;7.30;50.60;;;;;;5047265;28;20070;-63
2021/04/07 05:51:32;;;;;;;10.03;6.60;;;7.30;50.30;;;;;;5046171;28;20033;-62
2021/04/07 05:53:57;;;;;;;11.10;7.10;;;7.40;50.40;;;;;;5045172;28;20028;-63
2021/04/07 05:56:23;;;;;;;8.50;6.67;;;7.30;50.30;;;;;;5048307;28;20033;-62
2021/04/07 05:58:49;;;;;;;11.73;7.40;;;7.40;50.10;;;;;;5034776;28;20098;-62
2021/04/07 06:01:15;;;;;;;10.77;6.63;;;7.40;50.00;;;;;;5046190;28;20043;-62
2021/04/07 06:03:41;;;;;;;9.13;6.63;;;7.30;49.70;;;;;;5051951;28;20028;-62
2021/04/07 06:06:10;;;;;;;9.20;7.00;;;7.40;49.20;;;;;;5038494;28;20025;-62
2021/04/07 06:08:36;;;;;;;12.60;7.20;;;7.30;48.60;;;;;;5043741;28;20024;-62
2021/04/07 06:11:02;;;;;;;11.10;6.67;;;7.40;49.80;;;;;;5039063;28;20499;-62
2021/04/07 06:13:28;;;;;;;10.10;7.27;;;7.50;49.30;;;;;;5040222;28;20022;-62
2021/04/07 06:15:54;;;;;;;8.83;6.60;;;7.40;49.50;;;;;;5041242;28;20029;-62
2021/04/07 06:18:20;;;;;;;9.37;6.60;;;7.40;49.40;;;;;;5039990;28;20120;-62
2021/04/07 06:20:48;;;;;;;10.70;6.47;;;7.60;49.40;;;;;;5049669;28;20033;-62
2021/04/07 06:23:14;;;;;;;10.03;5.87;;;7.40;47.60;;;;;;5040849;28;20379;-62
2021/04/07 06:25:41;;;;;;;11.67;5.73;;;7.20;48.00;;;;;;5050605;28;20389;-62
2021/04/07 06:28:09;;;;;;;9.03;5.60;;;7.40;47.80;;;;;;5048510;28;20028;-62
2021/04/07 06:30:45;;;;;;;8.80;6.50;;;7.20;47.80;;;;;;5049000;28;20029;-63
2021/04/07 06:33:18;;;;;;;7.70;5.93;;;7.40;47.60;;;;;;5042377;28;20033;-63
2021/04/07 06:35:47;;;;;;;14.87;7.20;;;7.50;47.50;;;;;;5043772;28;20028;-62
2021/04/07 06:38:14;;;;;;;10.57;5.87;;;7.70;47.40;;;;;;5047959;28;20504;-62
2021/04/07 06:40:40;;;;;;;11.27;5.73;;;7.50;47.00;;;;;;5048651;28;20116;-62
2021/04/07 06:43:10;;;;;;;8.53;5.67;;;7.60;45.90;;;;;;5049931;28;20029;-62
2021/04/07 06:45:39;;;;;;;9.53;5.80;;;7.70;45.00;;;;;;5053313;28;20060;-62
2021/04/07 06:48:07;;;;;;;12.13;5.73;;;7.70;44.20;;;;;;5053788;28;20025;-62
2021/04/07 06:50:33;;;;;;;10.17;6.33;;;7.80;43.90;;;;;;5052257;28;20040;-62
2021/04/07 06:53:01;;;;;;;9.13;5.97;;;7.80;43.90;;;;;;5053054;28;20052;-62
2021/04/07 06:55:28;;;;;;;12.03;6.17;;;7.70;41.90;;;;;;5053370;28;20025;-62
2021/04/07 06:57:54;;;;;;;8.70;5.43;;;7.90;41.70;;;;;;5053466;28;20463;-62
2021/04/07 07:00:21;;;;;;;8.73;4.63;;;8.00;39.50;;;;;;5051828;28;20025;-62
2021/04/07 07:02:47;;;;;;;10.73;5.57;;;8.00;38.30;;;;;;5052196;28;20098;-63
2021/04/07 07:05:17;;;;;;;9.47;4.67;;;8.10;39.70;;;;;;5038479;28;20028;-62
2021/04/07 07:07:43;;;;;;;8.60;4.23;;;8.30;38.60;;;;;;5050534;28;20093;-63
2021/04/07 07:10:09;;;;;;;9.10;3.43;;;8.30;37.40;;;;;;5053087;28;20529;-62
2021/04/07 07:12:35;;;;;;;7.70;3.97;;;8.30;34.30;;;;;;5053060;28;20029;-62
2021/04/07 07:15:08;;;;;;;8.67;3.53;;;8.30;33.40;;;;;;5039680;28;20036;-62
2021/04/07 07:17:34;;;;;;;9.57;3.20;;;8.50;34.00;;;;;;5053010;28;20029;-62
2021/04/07 07:20:02;;;;;;;3.17;1.70;;;8.50;29.80;;;;;;5052849;28;20108;-62
2021/04/07 07:22:29;;;;;;;2.37;1.27;;;8.50;25.60;;;;;;5053132;28;20063;-62
2021/04/07 07:25:02;;;;;;;4.07;1.00;;;8.60;26.20;;;;;;5040901;28;20437;-62
2021/04/07 07:27:58;;;;;;;1.37;0.80;;;8.70;25.80;;;;;;5052819;28;20501;-62
2021/04/07 07:30:33;;;;;;;2.17;1.13;;;8.70;24.00;;;;;;5066717;28;20048;-63
2021/04/07 07:32:59;;;;;;;6.90;1.37;;;8.70;24.20;;;;;;5052981;28;20025;-62
2021/04/07 07:35:25;;;;;;;4.60;0.90;;;8.70;23.20;;;;;;5052147;28;20496;-62
2021/04/07 07:37:59;;;;;;;3.93;0.97;;;8.80;23.20;;;;;;5052529;28;20480;-62
2021/04/07 07:40:26;;;;;;;4.43;0.82;;;8.80;21.40;;;;;;5052472;28;20048;-62
2021/04/07 07:42:52;;;;;;;2.57;0.70;;;8.90;23.20;;;;;;5052676;28;20021;-62
2021/04/07 07:45:31;;;;;;;3.43;1.00;;;9.00;24.30;;;;;;5039765;28;20072;-62
2021/04/07 07:48:17;;;;;;;1.90;0.60;;;9.00;21.70;;;;;;5039126;28;20368;-62
2021/04/07 07:50:45;;;;;;;1.33;0.67;;;9.00;20.90;;;;;;5047817;28;20517;-63
2021/04/07 07:53:20;;;;;;;3.20;0.73;;;9.10;22.20;;;;;;5040942;28;20078;-64
2021/04/07 07:55:47;;;;;;;;;;;9.20;21.30;;;;;;5038957;28;20017;-64
2021/04/07 07:58:13;;;;;;;1.73;0.63;;;9.20;19.30;;;;;;5044091;28;19905;-62
2021/04/07 08:00:39;;;;;;;4.80;0.73;;;9.20;21.00;;;;;;5046679;28;20124;-63
2021/04/07 08:03:11;;;;;;;3.23;0.40;;;9.30;19.90;;;;;;5046063;28;20025;-70
2021/04/07 08:05:38;;;;;;;1.53;0.53;;;9.30;17.40;;;;;;5046968;28;20118;-70
2021/04/07 08:08:05;;;;;;;0.80;0.43;;;9.30;20.20;;;;;;5052357;28;20032;-70
2021/04/07 08:10:32;;;;;;;2.53;0.83;;;9.40;18.50;;;;;;5051187;28;20029;-75
2021/04/07 08:13:00;;;;;;;2.17;0.53;;;9.50;17.30;;;;;;5049024;28;20100;-70
2021/04/07 08:15:27;;;;;;;4.87;0.80;;;9.50;18.90;;;;;;5041193;28;20026;-73
2021/04/07 08:17:53;;;;;;;2.10;0.50;;;9.50;19.30;;;;;;5048253;28;20425;-74
2021/04/07 08:20:20;;;;;;;5.73;0.67;;;9.40;16.60;;;;;;5052750;28;20025;-74
2021/04/07 08:22:48;;;;;;;1.90;0.60;;;9.50;18.70;;;;;;5056277;28;20047;-70
2021/04/07 08:25:15;;;;;;;3.60;1.20;;;9.60;18.70;;;;;;5048205;28;20075;-70
2021/04/07 08:27:42;;;;;;;2.60;0.90;;;9.70;20.00;;;;;;5055426;28;20044;-74
2021/04/07 08:30:09;;;;;;;4.53;1.03;;;9.80;19.00;;;;;;5055166;28;20017;-68
2021/04/07 08:32:36;;;;;;;2.40;1.17;;;9.90;19.50;;;;;;5054339;28;20336;-68
2021/04/07 08:35:04;;;;;;;2.20;0.70;;;9.70;17.80;;;;;;5040759;28;20025;-69
2021/04/07 08:37:33;;;;;;;4.40;0.90;;;9.90;18.70;;;;;;5054914;28;20479;-69
2021/04/07 08:40:10;;;;;;;1.60;0.40;;;9.90;16.10;;;;;;5054363;28;20028;-69
2021/04/07 08:42:37;;;;;;;2.37;0.53;;;10.10;15.60;;;;;;5056195;28;20032;-69
2021/04/07 08:45:11;;;;;;;3.63;0.80;;;10.20;15.20;;;;;;5055629;28;20048;-69
2021/04/07 08:47:45;;;;;;;2.92;0.68;;;10.20;14.30;;;;;;5071230;28;20406;-68
2021/04/07 08:50:13;;;;;;;2.53;0.50;;;10.30;15.00;;;;;;5055806;28;20017;-68
2021/04/07 08:52:50;;;;;;;1.23;0.50;;;10.30;14.00;;;;;;5055572;28;20410;-68
2021/04/07 08:55:27;;;;;;;1.40;0.33;;;10.50;15.20;;;;;;5048813;28;20100;-68
2021/04/07 08:58:03;;;;;;;1.57;0.40;;;10.40;13.10;;;;;;5055708;28;20021;-68
2021/04/07 09:00:34;;;;;;;3.43;1.00;;;10.50;13.40;;;;;;5055955;28;20068;-68
2021/04/07 09:03:11;;;;;;;2.07;0.40;;;10.60;14.10;;;;;;5055617;28;20514;-68
2021/04/07 09:05:45;;;;;;;3.43;0.60;;;10.50;13.20;;;;;;5051275;28;20104;-68
2021/04/07 09:08:16;;;;;;;7.47;0.80;;;10.60;13.70;;;;;;5055189;28;20025;-67
2021/04/07 09:10:50;;;;;;;6.93;0.70;;;10.70;12.80;;;;;;5055651;28;20170;-67
2021/04/07 09:13:22;;;;;;;5.30;1.27;;;10.70;13.40;;;;;;5052608;28;20130;-67
2021/04/07 09:16:10;;;;;;;7.47;0.53;;;10.60;12.50;;;;;;5049729;28;20021;-68
2021/04/07 09:18:39;;;;;;;2.77;0.30;;;10.50;12.30;;;;;;5041549;28;20028;-68
2021/04/07 09:21:07;;;;;;;6.47;0.63;;;10.60;12.50;;;;;;5046802;28;20029;-67
2021/04/07 09:23:37;;;;;;;2.77;0.40;;;10.60;12.20;;;;;;5046249;28;20021;-68
2021/04/07 09:26:14;;;;;;;5.93;1.30;;;10.60;11.80;;;;;;5050216;28;20029;-68
2021/04/07 09:28:48;;;;;;;6.27;0.53;;;10.50;12.20;;;;;;5041862;28;20098;-68
2021/04/07 09:31:19;;;;;;;3.00;0.80;;;10.50;13.10;;;;;;5054008;28;20020;-68
2021/04/07 09:33:49;;;;;;;5.13;0.43;;;10.50;11.30;;;;;;5060840;28;20387;-68
2021/04/07 09:36:17;;;;;;;3.67;0.40;;;10.60;12.50;;;;;;5057901;28;20020;-68
2021/04/07 09:38:46;;;;;;;0.80;0.60;;;10.60;12.70;;;;;;5054853;28;20032;-69
2021/04/07 09:41:14;;;;;;;3.20;0.40;;;10.70;12.00;;;;;;5054357;28;20510;-68
2021/04/07 09:43:41;;;;;;;4.00;0.70;;;10.60;12.10;;;;;;5054802;28;20024;-67
2021/04/07 09:46:07;;;;;;;2.73;0.33;;;10.80;13.00;;;;;;5048774;28;20059;-67
2021/04/07 09:48:55;;;;;;;3.50;0.50;;;10.90;13.20;;;;;;5064389;28;20502;-67
2021/04/07 09:51:26;;;;;;;1.90;0.60;;;11.00;11.30;;;;;;5047901;28;20425;-68
2021/04/07 09:53:54;;;;;;;2.63;0.40;;;11.00;12.30;;;;;;5054700;28;20032;-68
2021/04/07 09:56:20;;;;;;;3.27;0.67;;;11.20;12.70;;;;;;5048582;28;20052;-67
2021/04/07 09:58:49;;;;;;;7.03;0.70;;;11.20;11.30;;;;;;5040940;28;20033;-68
2021/04/07 10:01:16;;;;;;;3.40;0.70;;;11.20;10.80;;;;;;5053278;28;20029;-67
2021/04/07 10:03:51;;;;;;;2.63;0.50;;;11.20;11.80;;;;;;5054489;28;20020;-67
2021/04/07 10:06:25;;;;;;;3.97;0.80;;;11.20;11.10;;;;;;5054189;28;20028;-66
2021/04/07 10:09:09;;;;;;;2.03;0.50;;;11.20;11.50;;;;;;5041285;28;20021;-67
2021/04/07 10:11:42;;;;;;;2.20;0.73;;;11.40;11.00;;;;;;5049523;28;20370;-68
2021/04/07 10:14:09;;;;;;;3.70;0.80;;;11.40;11.90;;;;;;5052473;28;20562;-67
2021/04/07 10:16:45;;;;;;;4.70;0.70;;;11.50;11.10;;;;;;5052846;28;20469;-68
2021/04/07 10:19:11;;;;;;;2.53;0.70;;;11.30;10.70;;;;;;5044284;28;20064;-68
2021/04/07 10:21:39;;;;;;;2.00;0.60;;;11.40;12.00;;;;;;5050242;28;20079;-68
2021/04/07 10:24:06;;;;;;;2.83;0.60;;;11.60;11.70;;;;;;5053457;28;20029;-69
2021/04/07 10:26:39;;;;;;;3.90;0.57;;;11.50;10.50;;;;;;5038950;28;20467;-69
2021/04/07 10:29:05;;;;;;;0.80;0.60;;;11.60;10.80;;;;;;5054044;28;20108;-68
2021/04/07 10:31:30;;;;;;;4.70;0.50;;;11.70;11.40;;;;;;5053916;28;20142;-69
2021/04/07 10:34:07;;;;;;;1.37;0.40;;;11.70;8.70;;;;;;5047545;28;20052;-68
2021/04/07 10:36:34;;;;;;;2.43;0.40;;;11.80;9.50;;;;;;5066465;28;20064;-69
2021/04/07 10:39:12;;;;;;;1.20;0.52;;;12.00;11.40;;;;;;5067817;28;20020;-69
2021/04/07 10:41:38;;;;;;;3.07;0.50;;;12.20;9.90;;;;;;5041553;28;20033;-68
2021/04/07 10:44:05;;;;;;;4.27;0.40;;;12.10;9.90;;;;;;5045696;28;20036;-69
2021/04/07 10:46:31;;;;;;;2.73;0.37;;;12.00;8.60;;;;;;5053440;28;20063;-68
2021/04/07 10:48:58;;;;;;;3.37;0.63;;;12.00;9.40;;;;;;5052794;28;20524;-68
2021/04/07 10:51:25;;;;;;;0.80;0.37;;;12.20;10.40;;;;;;5053679;28;20021;-68
2021/04/07 10:53:56;;;;;;;2.87;0.30;;;12.50;9.70;;;;;;5050514;28;20068;-68
2021/04/07 10:56:24;;;;;;;1.02;0.50;;;12.30;9.00;;;;;;5050293;28;20478;-68
2021/04/07 10:58:59;;;;;;;1.05;0.40;;;12.30;9.90;;;;;;5053490;28;20017;-68
2021/04/07 11:01:31;;;;;;;1.55;0.35;;;12.50;9.50;;;;;;5053406;28;20033;-68
2021/04/07 11:03:57;;;;;;;1.30;0.40;;;12.60;9.60;;;;;;5043085;28;20033;-68
2021/04/07 11:06:24;;;;;;;1.70;0.55;;;12.70;9.90;;;;;;5051798;28;20036;-69
2021/04/07 11:08:52;;;;;;;2.40;0.40;;;13.00;10.20;;;;;;5052750;28;20036;-68
2021/04/07 11:11:25;;;;;;;1.95;0.57;;;13.00;10.30;;;;;;5050144;28;20033;-68
2021/04/07 11:13:53;;;;;;;3.25;0.93;;;12.90;10.10;;;;;;5040612;28;20037;-68
2021/04/07 11:16:19;;;;;;;2.17;0.25;;;13.00;9.70;;;;;;5053194;28;20021;-67
2021/04/07 11:18:46;;;;;;;1.95;0.57;;;13.00;10.30;;;;;;5067672;28;20090;-68
2021/04/07 11:21:14;;;;;;;3.40;0.52;;;13.10;9.80;;;;;;5053197;28;20053;-68
2021/04/07 11:23:40;;;;;;;1.45;0.35;;;13.30;10.30;;;;;;5045497;28;20025;-68
2021/04/07 11:26:09;;;;;;;1.85;0.45;;;13.30;9.90;;;;;;5052874;28;20036;-68
2021/04/07 11:28:35;;;;;;;2.53;0.80;;;13.40;9.00;;;;;;5052890;28;20020;-68
2021/04/07 11:33:35;;;;;;;1.73;0.30;;;13.80;9.60;;;;;;5052229;28;20482;-68
2021/04/07 11:36:12;;;;;;;0.52;0.30;;;14.20;9.30;;;;;;5066822;28;20486;-69
2021/04/07 11:38:42;;;;;;;0.82;0.45;;;14.00;8.40;;;;;;5051898;28;20429;-69
2021/04/07 11:44:25;;;;;;;0.95;0.50;;;14.10;8.60;;;;;;5048826;28;20113;-69
2021/04/07 11:46:35;;;;;;;1.73;0.40;;;14.00;9.30;;;;;;5052154;28;20123;-69
2021/04/07 11:49:02;;;;;;;2.78;0.63;;;14.10;9.30;;;;;;5044772;28;20509;-69
2021/04/07 11:51:28;;;;;;;2.42;0.30;;;14.40;9.10;;;;;;5038798;28;20017;-70
2021/04/07 11:53:53;;;;;;;1.75;0.38;;;14.80;8.60;;;;;;5050045;28;20021;-71
2021/04/07 11:56:19;;;;;;;1.65;0.47;;;15.20;9.00;;;;;;5051816;28;20086;-70
2021/04/07 11:58:46;;;;;;;1.00;0.73;;;16.50;8.10;;;;;;5052511;28;20360;-71
2021/04/07 12:01:12;;;;;;;1.63;0.25;;;15.90;7.50;;;;;;5052348;28;20044;-70
2021/04/07 12:03:38;;;;;;;1.13;0.57;;;22.10;7.30;;;;;;5051229;28;20021;-70
2021/04/07 12:06:03;;;;;;;2.15;0.40;;;25.60;5.50;;;;;;5051550;28;20428;-67
2021/04/07 12:08:29;;;;;;;6.18;0.80;;;28.30;3.70;;;;;;5052712;28;20024;-68
2021/04/07 12:10:59;;;;;;;2.15;0.50;;;27.60;4.70;;;;;;5052328;28;20031;-69
2021/04/07 12:13:27;;;;;;;3.85;0.60;;;27.70;3.50;;;;;;5051045;28;20027;-69
2021/04/07 12:15:53;;;;;;;2.63;0.13;;;30.50;4.00;;;;;;5052516;28;20364;-69
2021/04/07 12:18:19;;;;;;;2.28;0.80;;;31.50;4.60;;;;;;5052352;28;20056;-69
2021/04/07 12:20:45;;;;;;;0.30;0.30;;;27.60;3.10;;;;;;5052424;28;20036;-69
2021/04/07 12:23:11;;;;;;;1.10;0.45;;;22.90;4.70;;;;;;5052337;28;20043;-69
2021/04/07 12:25:37;;;;;;;1.45;0.43;;;21.20;12.30;;;;;;5038236;28;20017;-69
2021/04/07 12:28:04;;;;;;;2.58;0.40;;;24.10;3.10;;;;;;5052388;28;20065;-69
2021/04/07 12:30:32;;;;;;;0.82;0.30;;;24.10;4.40;;;;;;5052166;28;20021;-70
2021/04/07 12:32:57;;;;;;;4.15;0.70;;;22.40;3.90;;;;;;5052241;28;20026;-69
2021/04/07 12:35:38;;;;;;;1.33;0.30;;;23.00;5.30;;;;;;5062752;28;20032;-71
2021/04/07 12:38:04;;;;;;;2.70;0.57;;;22.50;3.40;;;;;;5038392;28;20053;-70
2021/04/07 12:40:29;;;;;;;4.47;0.50;;;22.10;3.80;;;;;;5052199;28;20087;-70
2021/04/07 12:42:55;;;;;;;3.00;0.60;;;22.30;4.90;;;;;;5052142;28;20025;-70
2021/04/07 12:45:21;;;;;;;1.83;0.40;;;23.20;4.10;;;;;;5051590;28;20059;-71
2021/04/07 12:47:46;;;;;;;5.40;1.02;;;23.30;4.90;;;;;;5052209;28;20057;-70
2021/04/07 12:50:13;;;;;;;2.70;0.40;;;25.00;4.60;;;;;;5052062;28;20387;-69
2021/04/07 12:52:38;;;;;;;0.80;0.30;;;25.70;4.50;;;;;;5051998;28;20474;-70
2021/04/07 12:55:05;;;;;;;2.53;0.45;;;28.20;4.30;;;;;;5051353;28;20033;-70
2021/04/07 12:57:31;;;;;;;2.03;0.30;;;29.30;3.90;;;;;;5050702;28;20025;-69
2021/04/07 12:59:56;;;;;;;0.95;0.40;;;29.00;3.70;;;;;;5050708;28;20174;-70
2021/04/07 13:02:22;;;;;;;2.67;0.30;;;30.60;3.50;;;;;;5051025;28;20075;-69
2021/04/07 13:04:49;;;;;;;0.90;0.28;;;33.00;3.70;;;;;;5050940;28;20032;-70
2021/04/07 13:07:14;;;;;;;1.45;0.40;;;33.80;2.80;;;;;;5053360;28;20024;-70